sensor_id;sensor_type;location;lat;lon;timestamp;P1;durP1;ratioP1;P2;durP2;ratioP2
2972;SDS011;1496;51.404;7.232;2023-04-01T00:01:55;1.60;;;1.20;;
2972;SDS011;1496;51.404;7.232;2023-04-01T00:04:21;2.33;;;1.40;;
2972;SDS011;1496;51.404;7.232;2023-04-01T00:06:51;4.30;;;1.20;;
2972;SDS011;1496;51.404;7.232;2023-04-01T00:09:18;5.93;;;2.50;;
2972;SDS011;1496;51.404;7.232;2023-04-01T00:11:44;1.63;;;1.53;;
2972;SDS011;1496;51.404;7.232;2023-04-01T00:14:12;3.80;;;1.67;;
2972;SDS011;1496;51.404;7.232;2023-04-01T00:16:39;3.73;;;1.40;;
2972;SDS011;1496;51.404;7.232;2023-04-01T00:19:06;4.30;;;1.77;;
2972;SDS011;1496;51.404;7.232;2023-04-01T00:21:33;2.90;;;1.20;;
2972;SDS011;1496;51.404;7.232;2023-04-01T00:24:02;5.53;;;1.40;;
2972;SDS011;1496;51.404;7.232;2023-04-01T00:26:31;4.17;;;1.70;;
2972;SDS011;1496;51.404;7.232;2023-04-01T00:29:00;3.17;;;1.73;;
2972;SDS011;1496;51.404;7.232;2023-04-01T00:31:27;3.17;;;1.67;;
2972;SDS011;1496;51.404;7.232;2023-04-01T00:33:54;2.47;;;1.60;;
2972;SDS011;1496;51.404;7.232;2023-04-01T00:36:21;3.00;;;1.60;;
2972;SDS011;1496;51.404;7.232;2023-04-01T00:38:49;5.93;;;1.50;;
2972;SDS011;1496;51.404;7.232;2023-04-01T00:41:18;3.63;;;1.80;;
2972;SDS011;1496;51.404;7.232;2023-04-01T00:43:46;1.57;;;1.37;;
2972;SDS011;1496;51.404;7.232;2023-04-01T00:46:14;1.63;;;1.30;;
2972;SDS011;1496;51.404;7.232;2023-04-01T00:48:42;2.47;;;1.20;;
2972;SDS011;1496;51.404;7.232;2023-04-01T00:51:18;2.70;;;1.27;;
2972;SDS011;1496;51.404;7.232;2023-04-01T00:53:50;4.03;;;1.70;;
2972;SDS011;1496;51.404;7.232;2023-04-01T00:59:13;2.40;;;1.77;;
2972;SDS011;1496;51.404;7.232;2023-04-01T01:01:53;4.43;;;1.47;;
2972;SDS011;1496;51.404;7.232;2023-04-01T01:04:28;3.37;;;1.37;;
2972;SDS011;1496;51.404;7.232;2023-04-01T01:07:03;2.40;;;1.17;;
2972;SDS011;1496;51.404;7.232;2023-04-01T01:13:17;4.23;;;1.10;;
2972;SDS011;1496;51.404;7.232;2023-04-01T01:15:57;3.07;;;1.70;;
2972;SDS011;1496;51.404;7.232;2023-04-01T01:18:34;1.40;;;1.17;;
2972;SDS011;1496;51.404;7.232;2023-04-01T01:30:37;3.13;;;1.53;;
2972;SDS011;1496;51.404;7.232;2023-04-01T01:36:18;1.47;;;1.13;;
2972;SDS011;1496;51.404;7.232;2023-04-01T01:38:47;3.43;;;1.57;;
2972;SDS011;1496;51.404;7.232;2023-04-01T01:41:17;3.47;;;1.60;;
2972;SDS011;1496;51.404;7.232;2023-04-01T01:43:48;4.20;;;1.50;;
2972;SDS011;1496;51.404;7.232;2023-04-01T01:46:20;3.33;;;1.77;;
2972;SDS011;1496;51.404;7.232;2023-04-01T01:48:50;1.90;;;1.50;;
2972;SDS011;1496;51.404;7.232;2023-04-01T01:51:19;5.73;;;1.63;;
2972;SDS011;1496;51.404;7.232;2023-04-01T01:53:49;1.70;;;1.40;;
2972;SDS011;1496;51.404;7.232;2023-04-01T01:56:23;2.57;;;1.37;;
2972;SDS011;1496;51.404;7.232;2023-04-01T01:58:56;5.70;;;1.63;;
2972;SDS011;1496;51.404;7.232;2023-04-01T02:01:31;2.80;;;1.30;;
2972;SDS011;1496;51.404;7.232;2023-04-01T02:04:09;2.30;;;1.30;;
2972;SDS011;1496;51.404;7.232;2023-04-01T02:06:43;2.80;;;1.30;;
2972;SDS011;1496;51.404;7.232;2023-04-01T02:09:31;2.40;;;1.23;;
2972;SDS011;1496;51.404;7.232;2023-04-01T02:12:06;5.37;;;1.43;;
2972;SDS011;1496;51.404;7.232;2023-04-01T02:14:44;3.00;;;1.43;;
2972;SDS011;1496;51.404;7.232;2023-04-01T02:17:18;1.80;;;1.30;;
2972;SDS011;1496;51.404;7.232;2023-04-01T02:22:51;1.50;;;1.07;;
2972;SDS011;1496;51.404;7.232;2023-04-01T02:25:22;1.67;;;1.30;;
2972;SDS011;1496;51.404;7.232;2023-04-01T02:27:53;2.40;;;1.50;;
2972;SDS011;1496;51.404;7.232;2023-04-01T02:30:23;1.73;;;1.50;;
2972;SDS011;1496;51.404;7.232;2023-04-01T02:32:56;1.73;;;1.50;;
2972;SDS011;1496;51.404;7.232;2023-04-01T02:35:23;2.90;;;1.53;;
2972;SDS011;1496;51.404;7.232;2023-04-01T02:37:52;3.53;;;1.10;;
2972;SDS011;1496;51.404;7.232;2023-04-01T02:40:22;2.27;;;1.10;;
2972;SDS011;1496;51.404;7.232;2023-04-01T02:42:49;2.43;;;1.20;;
2972;SDS011;1496;51.404;7.232;2023-04-01T02:45:16;1.83;;;1.17;;
2972;SDS011;1496;51.404;7.232;2023-04-01T02:47:44;3.60;;;0.87;;
2972;SDS011;1496;51.404;7.232;2023-04-01T02:50:12;3.00;;;1.10;;
2972;SDS011;1496;51.404;7.232;2023-04-01T02:52:41;1.77;;;0.90;;
2972;SDS011;1496;51.404;7.232;2023-04-01T02:55:10;1.40;;;0.80;;
2972;SDS011;1496;51.404;7.232;2023-04-01T02:57:37;2.37;;;1.00;;
2972;SDS011;1496;51.404;7.232;2023-04-01T03:00:04;3.27;;;0.90;;
2972;SDS011;1496;51.404;7.232;2023-04-01T03:02:38;2.93;;;0.80;;
2972;SDS011;1496;51.404;7.232;2023-04-01T03:05:06;1.97;;;0.70;;
2972;SDS011;1496;51.404;7.232;2023-04-01T03:07:34;0.90;;;0.77;;
2972;SDS011;1496;51.404;7.232;2023-04-01T03:10:00;2.80;;;0.90;;
2972;SDS011;1496;51.404;7.232;2023-04-01T03:12:28;1.27;;;0.80;;
2972;SDS011;1496;51.404;7.232;2023-04-01T03:14:56;1.33;;;0.93;;
2972;SDS011;1496;51.404;7.232;2023-04-01T03:17:23;1.50;;;0.80;;
2972;SDS011;1496;51.404;7.232;2023-04-01T03:19:50;1.20;;;0.80;;
2972;SDS011;1496;51.404;7.232;2023-04-01T03:22:23;1.20;;;0.80;;
2972;SDS011;1496;51.404;7.232;2023-04-01T03:24:53;1.30;;;0.73;;
2972;SDS011;1496;51.404;7.232;2023-04-01T03:27:20;1.87;;;0.93;;
2972;SDS011;1496;51.404;7.232;2023-04-01T03:29:50;1.50;;;0.70;;
2972;SDS011;1496;51.404;7.232;2023-04-01T03:32:16;1.43;;;0.87;;
2972;SDS011;1496;51.404;7.232;2023-04-01T03:34:44;2.70;;;0.97;;
2972;SDS011;1496;51.404;7.232;2023-04-01T03:37:11;1.10;;;0.70;;
2972;SDS011;1496;51.404;7.232;2023-04-01T03:39:38;1.50;;;0.60;;
2972;SDS011;1496;51.404;7.232;2023-04-01T03:42:05;2.03;;;1.20;;
2972;SDS011;1496;51.404;7.232;2023-04-01T03:44:33;1.40;;;0.90;;
2972;SDS011;1496;51.404;7.232;2023-04-01T03:47:00;1.40;;;0.93;;
2972;SDS011;1496;51.404;7.232;2023-04-01T03:49:27;2.23;;;1.00;;
2972;SDS011;1496;51.404;7.232;2023-04-01T03:51:55;1.83;;;1.27;;
2972;SDS011;1496;51.404;7.232;2023-04-01T03:54:23;1.43;;;0.93;;
2972;SDS011;1496;51.404;7.232;2023-04-01T03:56:49;1.53;;;1.20;;
2972;SDS011;1496;51.404;7.232;2023-04-01T03:59:16;1.30;;;1.03;;
2972;SDS011;1496;51.404;7.232;2023-04-01T04:01:43;3.03;;;1.70;;
2972;SDS011;1496;51.404;7.232;2023-04-01T04:04:13;1.50;;;1.40;;
2972;SDS011;1496;51.404;7.232;2023-04-01T04:06:41;2.43;;;1.77;;
2972;SDS011;1496;51.404;7.232;2023-04-01T04:09:08;2.40;;;2.20;;
2972;SDS011;1496;51.404;7.232;2023-04-01T04:11:37;1.77;;;1.20;;
2972;SDS011;1496;51.404;7.232;2023-04-01T04:14:04;1.90;;;1.53;;
2972;SDS011;1496;51.404;7.232;2023-04-01T04:16:31;2.30;;;1.67;;
2972;SDS011;1496;51.404;7.232;2023-04-01T04:19:02;1.60;;;1.50;;
2972;SDS011;1496;51.404;7.232;2023-04-01T04:21:31;2.63;;;1.90;;
2972;SDS011;1496;51.404;7.232;2023-04-01T04:23:59;4.50;;;1.70;;
2972;SDS011;1496;51.404;7.232;2023-04-01T04:26:27;2.90;;;1.70;;
2972;SDS011;1496;51.404;7.232;2023-04-01T04:28:59;3.47;;;2.17;;
2972;SDS011;1496;51.404;7.232;2023-04-01T04:31:26;3.93;;;2.30;;
2972;SDS011;1496;51.404;7.232;2023-04-01T04:33:58;5.50;;;2.50;;
2972;SDS011;1496;51.404;7.232;2023-04-01T04:36:26;2.27;;;2.00;;
2972;SDS011;1496;51.404;7.232;2023-04-01T04:38:55;3.20;;;2.20;;
2972;SDS011;1496;51.404;7.232;2023-04-01T04:41:24;5.43;;;2.10;;
2972;SDS011;1496;51.404;7.232;2023-04-01T04:43:53;2.77;;;2.17;;
2972;SDS011;1496;51.404;7.232;2023-04-01T04:46:22;1.97;;;1.50;;
2972;SDS011;1496;51.404;7.232;2023-04-01T04:48:56;1.47;;;1.37;;
2972;SDS011;1496;51.404;7.232;2023-04-01T04:51:24;1.70;;;1.40;;
2972;SDS011;1496;51.404;7.232;2023-04-01T04:53:51;3.10;;;2.00;;
2972;SDS011;1496;51.404;7.232;2023-04-01T04:56:27;2.03;;;1.70;;
2972;SDS011;1496;51.404;7.232;2023-04-01T04:59:02;1.60;;;1.50;;
2972;SDS011;1496;51.404;7.232;2023-04-01T05:01:40;3.80;;;1.97;;
2972;SDS011;1496;51.404;7.232;2023-04-01T05:04:06;1.77;;;1.67;;
2972;SDS011;1496;51.404;7.232;2023-04-01T05:06:33;1.90;;;1.70;;
2972;SDS011;1496;51.404;7.232;2023-04-01T05:09:01;3.43;;;1.40;;
2972;SDS011;1496;51.404;7.232;2023-04-01T05:11:28;2.53;;;2.10;;
2972;SDS011;1496;51.404;7.232;2023-04-01T05:13:57;6.53;;;1.53;;
2972;SDS011;1496;51.404;7.232;2023-04-01T05:16:26;2.00;;;1.53;;
2972;SDS011;1496;51.404;7.232;2023-04-01T05:18:53;3.80;;;1.40;;
2972;SDS011;1496;51.404;7.232;2023-04-01T05:21:21;1.70;;;1.60;;
2972;SDS011;1496;51.404;7.232;2023-04-01T05:23:52;3.67;;;1.50;;
2972;SDS011;1496;51.404;7.232;2023-04-01T05:26:20;3.70;;;1.93;;
2972;SDS011;1496;51.404;7.232;2023-04-01T05:28:47;1.50;;;1.20;;
2972;SDS011;1496;51.404;7.232;2023-04-01T05:31:14;2.50;;;1.30;;
2972;SDS011;1496;51.404;7.232;2023-04-01T05:33:44;3.37;;;1.70;;
2972;SDS011;1496;51.404;7.232;2023-04-01T05:36:14;1.30;;;1.20;;
2972;SDS011;1496;51.404;7.232;2023-04-01T05:38:42;1.83;;;1.07;;
2972;SDS011;1496;51.404;7.232;2023-04-01T05:41:13;1.57;;;1.40;;
2972;SDS011;1496;51.404;7.232;2023-04-01T05:43:44;2.90;;;1.80;;
2972;SDS011;1496;51.404;7.232;2023-04-01T05:46:31;3.07;;;1.60;;
2972;SDS011;1496;51.404;7.232;2023-04-01T05:49:21;2.00;;;1.53;;
2972;SDS011;1496;51.404;7.232;2023-04-01T05:51:48;1.70;;;1.33;;
2972;SDS011;1496;51.404;7.232;2023-04-01T05:54:18;1.40;;;1.17;;
2972;SDS011;1496;51.404;7.232;2023-04-01T05:56:45;1.10;;;0.90;;
2972;SDS011;1496;51.404;7.232;2023-04-01T05:59:12;3.13;;;1.10;;
2972;SDS011;1496;51.404;7.232;2023-04-01T06:01:40;1.20;;;1.00;;
2972;SDS011;1496;51.404;7.232;2023-04-01T06:04:09;1.97;;;1.10;;
2972;SDS011;1496;51.404;7.232;2023-04-01T06:06:42;1.13;;;0.90;;
2972;SDS011;1496;51.404;7.232;2023-04-01T06:09:44;2.43;;;1.03;;
2972;SDS011;1496;51.404;7.232;2023-04-01T06:12:17;2.73;;;1.50;;
2972;SDS011;1496;51.404;7.232;2023-04-01T06:17:48;1.63;;;1.17;;
2972;SDS011;1496;51.404;7.232;2023-04-01T06:20:43;1.30;;;1.10;;
2972;SDS011;1496;51.404;7.232;2023-04-01T06:23:33;4.37;;;1.40;;
2972;SDS011;1496;51.404;7.232;2023-04-01T06:32:18;1.73;;;1.37;;
2972;SDS011;1496;51.404;7.232;2023-04-01T06:38:07;1.60;;;1.20;;
2972;SDS011;1496;51.404;7.232;2023-04-01T06:47:30;1.90;;;1.40;;
2972;SDS011;1496;51.404;7.232;2023-04-01T06:53:54;2.27;;;1.83;;
2972;SDS011;1496;51.404;7.232;2023-04-01T06:57:26;1.20;;;0.90;;
2972;SDS011;1496;51.404;7.232;2023-04-01T06:59:54;2.17;;;1.70;;
2972;SDS011;1496;51.404;7.232;2023-04-01T07:02:36;2.20;;;1.20;;
2972;SDS011;1496;51.404;7.232;2023-04-01T07:05:23;2.37;;;1.40;;
2972;SDS011;1496;51.404;7.232;2023-04-01T07:07:56;3.23;;;1.47;;
2972;SDS011;1496;51.404;7.232;2023-04-01T07:10:32;1.40;;;1.20;;
2972;SDS011;1496;51.404;7.232;2023-04-01T07:16:37;5.23;;;1.40;;
2972;SDS011;1496;51.404;7.232;2023-04-01T07:19:28;3.50;;;1.77;;
2972;SDS011;1496;51.404;7.232;2023-04-01T07:25:43;1.60;;;1.50;;
2972;SDS011;1496;51.404;7.232;2023-04-01T07:28:41;1.90;;;1.70;;
2972;SDS011;1496;51.404;7.232;2023-04-01T07:37:31;1.30;;;1.17;;
2972;SDS011;1496;51.404;7.232;2023-04-01T07:48:31;1.10;;;0.93;;
2972;SDS011;1496;51.404;7.232;2023-04-01T07:51:20;1.23;;;1.10;;
2972;SDS011;1496;51.404;7.232;2023-04-01T07:54:01;1.30;;;1.10;;
2972;SDS011;1496;51.404;7.232;2023-04-01T07:56:42;1.70;;;1.47;;
2972;SDS011;1496;51.404;7.232;2023-04-01T07:59:31;1.20;;;1.10;;
2972;SDS011;1496;51.404;7.232;2023-04-01T08:11:53;1.23;;;1.13;;
2972;SDS011;1496;51.404;7.232;2023-04-01T08:23:22;2.07;;;1.30;;
2972;SDS011;1496;51.404;7.232;2023-04-01T08:28:39;1.40;;;1.30;;
2972;SDS011;1496;51.404;7.232;2023-04-01T08:31:16;1.30;;;1.20;;
2972;SDS011;1496;51.404;7.232;2023-04-01T08:33:55;1.70;;;1.10;;
2972;SDS011;1496;51.404;7.232;2023-04-01T08:36:29;2.80;;;1.43;;
2972;SDS011;1496;51.404;7.232;2023-04-01T08:39:11;1.53;;;1.40;;
2972;SDS011;1496;51.404;7.232;2023-04-01T08:50:42;2.43;;;2.23;;
2972;SDS011;1496;51.404;7.232;2023-04-01T08:56:23;2.03;;;1.60;;
2972;SDS011;1496;51.404;7.232;2023-04-01T08:59:06;4.10;;;2.30;;
2972;SDS011;1496;51.404;7.232;2023-04-01T09:02:00;2.33;;;2.13;;
2972;SDS011;1496;51.404;7.232;2023-04-01T09:14:09;2.67;;;2.47;;
2972;SDS011;1496;51.404;7.232;2023-04-01T09:22:42;2.90;;;2.27;;
2972;SDS011;1496;51.404;7.232;2023-04-01T09:25:53;2.63;;;2.43;;
2972;SDS011;1496;51.404;7.232;2023-04-01T09:28:38;2.73;;;2.23;;
2972;SDS011;1496;51.404;7.232;2023-04-01T09:31:15;2.97;;;2.67;;
2972;SDS011;1496;51.404;7.232;2023-04-01T09:40:25;4.27;;;3.80;;
2972;SDS011;1496;51.404;7.232;2023-04-01T09:48:23;6.17;;;4.33;;
2972;SDS011;1496;51.404;7.232;2023-04-01T09:54:10;6.33;;;4.80;;
2972;SDS011;1496;51.404;7.232;2023-04-01T10:26:29;8.33;;;6.40;;
2972;SDS011;1496;51.404;7.232;2023-04-01T10:32:42;6.93;;;5.83;;
2972;SDS011;1496;51.404;7.232;2023-04-01T10:49:10;8.23;;;6.47;;
2972;SDS011;1496;51.404;7.232;2023-04-01T11:34:48;5.90;;;4.43;;
2972;SDS011;1496;51.404;7.232;2023-04-01T11:41:01;5.90;;;4.27;;
2972;SDS011;1496;51.404;7.232;2023-04-01T11:47:13;6.03;;;5.43;;
2972;SDS011;1496;51.404;7.232;2023-04-01T11:53:14;5.27;;;4.70;;
2972;SDS011;1496;51.404;7.232;2023-04-01T12:01:39;5.40;;;4.13;;
2972;SDS011;1496;51.404;7.232;2023-04-01T12:07:06;5.53;;;4.33;;
2972;SDS011;1496;51.404;7.232;2023-04-01T12:09:58;5.60;;;3.93;;
2972;SDS011;1496;51.404;7.232;2023-04-01T12:21:29;6.03;;;4.20;;
2972;SDS011;1496;51.404;7.232;2023-04-01T12:24:36;4.40;;;3.53;;
2972;SDS011;1496;51.404;7.232;2023-04-01T12:27:19;8.10;;;5.63;;
2972;SDS011;1496;51.404;7.232;2023-04-01T12:47:57;6.23;;;5.53;;
2972;SDS011;1496;51.404;7.232;2023-04-01T12:59:19;6.47;;;4.80;;
2972;SDS011;1496;51.404;7.232;2023-04-01T13:02:32;8.27;;;6.20;;
2972;SDS011;1496;51.404;7.232;2023-04-01T13:05:15;6.60;;;5.10;;
2972;SDS011;1496;51.404;7.232;2023-04-01T13:07:59;9.40;;;6.37;;
2972;SDS011;1496;51.404;7.232;2023-04-01T13:11:00;6.93;;;6.10;;
2972;SDS011;1496;51.404;7.232;2023-04-01T13:24:37;9.00;;;7.20;;
2972;SDS011;1496;51.404;7.232;2023-04-01T13:35:35;9.27;;;6.93;;
2972;SDS011;1496;51.404;7.232;2023-04-01T13:58:20;7.27;;;5.73;;
2972;SDS011;1496;51.404;7.232;2023-04-01T14:01:08;6.23;;;5.47;;
2972;SDS011;1496;51.404;7.232;2023-04-01T14:08:55;6.60;;;5.17;;
2972;SDS011;1496;51.404;7.232;2023-04-01T14:14:31;5.80;;;4.67;;
2972;SDS011;1496;51.404;7.232;2023-04-01T14:26:13;5.30;;;4.07;;
2972;SDS011;1496;51.404;7.232;2023-04-01T14:28:56;4.80;;;4.30;;
2972;SDS011;1496;51.404;7.232;2023-04-01T14:34:26;8.97;;;5.60;;
2972;SDS011;1496;51.404;7.232;2023-04-01T14:40:21;6.10;;;4.73;;
2972;SDS011;1496;51.404;7.232;2023-04-01T14:43:10;5.40;;;4.50;;
2972;SDS011;1496;51.404;7.232;2023-04-01T14:46:05;4.90;;;4.27;;
2972;SDS011;1496;51.404;7.232;2023-04-01T14:51:46;6.00;;;3.80;;
2972;SDS011;1496;51.404;7.232;2023-04-01T14:54:32;6.20;;;4.60;;
2972;SDS011;1496;51.404;7.232;2023-04-01T14:57:10;5.80;;;4.57;;
2972;SDS011;1496;51.404;7.232;2023-04-01T14:59:39;5.30;;;4.10;;
2972;SDS011;1496;51.404;7.232;2023-04-01T15:08:47;8.50;;;5.50;;
2972;SDS011;1496;51.404;7.232;2023-04-01T15:14:23;7.37;;;5.50;;
2972;SDS011;1496;51.404;7.232;2023-04-01T15:17:30;6.90;;;5.70;;
2972;SDS011;1496;51.404;7.232;2023-04-01T15:23:28;7.37;;;5.30;;
2972;SDS011;1496;51.404;7.232;2023-04-01T15:29:41;8.87;;;6.83;;
2972;SDS011;1496;51.404;7.232;2023-04-01T15:41:00;9.60;;;7.70;;
2972;SDS011;1496;51.404;7.232;2023-04-01T15:43:41;9.57;;;6.83;;
2972;SDS011;1496;51.404;7.232;2023-04-01T15:52:17;10.43;;;8.10;;
2972;SDS011;1496;51.404;7.232;2023-04-01T15:54:57;12.60;;;8.93;;
2972;SDS011;1496;51.404;7.232;2023-04-01T16:00:24;11.57;;;8.90;;
2972;SDS011;1496;51.404;7.232;2023-04-01T16:03:57;13.13;;;9.00;;
2972;SDS011;1496;51.404;7.232;2023-04-01T16:16:34;8.00;;;6.33;;
2972;SDS011;1496;51.404;7.232;2023-04-01T16:19:32;7.57;;;5.33;;
2972;SDS011;1496;51.404;7.232;2023-04-01T16:22:35;5.70;;;4.80;;
2972;SDS011;1496;51.404;7.232;2023-04-01T16:25:17;5.37;;;4.03;;
2972;SDS011;1496;51.404;7.232;2023-04-01T16:34:01;6.73;;;3.53;;
2972;SDS011;1496;51.404;7.232;2023-04-01T16:36:50;4.77;;;3.80;;
2972;SDS011;1496;51.404;7.232;2023-04-01T16:39:44;3.13;;;2.83;;
2972;SDS011;1496;51.404;7.232;2023-04-01T16:43:04;5.50;;;4.07;;
2972;SDS011;1496;51.404;7.232;2023-04-01T16:45:33;4.83;;;4.10;;
2972;SDS011;1496;51.404;7.232;2023-04-01T16:51:16;5.70;;;5.20;;
2972;SDS011;1496;51.404;7.232;2023-04-01T16:56:23;7.77;;;5.97;;
2972;SDS011;1496;51.404;7.232;2023-04-01T17:15:15;8.80;;;6.90;;
2972;SDS011;1496;51.404;7.232;2023-04-01T17:20:40;8.30;;;7.10;;
2972;SDS011;1496;51.404;7.232;2023-04-01T17:23:26;8.87;;;7.43;;
2972;SDS011;1496;51.404;7.232;2023-04-01T17:26:28;9.07;;;7.37;;
2972;SDS011;1496;51.404;7.232;2023-04-01T17:38:13;9.63;;;7.97;;
2972;SDS011;1496;51.404;7.232;2023-04-01T17:46:24;11.77;;;8.53;;
2972;SDS011;1496;51.404;7.232;2023-04-01T17:51:33;9.67;;;6.97;;
2972;SDS011;1496;51.404;7.232;2023-04-01T17:54:23;10.53;;;7.53;;
2972;SDS011;1496;51.404;7.232;2023-04-01T18:09:16;9.80;;;7.17;;
2972;SDS011;1496;51.404;7.232;2023-04-01T18:17:55;9.63;;;7.10;;
2972;SDS011;1496;51.404;7.232;2023-04-01T18:20:43;8.10;;;7.20;;
2972;SDS011;1496;51.404;7.232;2023-04-01T18:23:20;9.33;;;7.80;;
2972;SDS011;1496;51.404;7.232;2023-04-01T18:26:07;10.60;;;8.30;;
2972;SDS011;1496;51.404;7.232;2023-04-01T18:28:42;10.70;;;7.40;;
2972;SDS011;1496;51.404;7.232;2023-04-01T18:31:20;10.73;;;8.33;;
2972;SDS011;1496;51.404;7.232;2023-04-01T18:33:58;13.80;;;9.20;;
2972;SDS011;1496;51.404;7.232;2023-04-01T18:39:37;9.83;;;8.53;;
2972;SDS011;1496;51.404;7.232;2023-04-01T18:45:27;13.33;;;9.43;;
2972;SDS011;1496;51.404;7.232;2023-04-01T18:48:15;12.80;;;10.60;;
2972;SDS011;1496;51.404;7.232;2023-04-01T18:50:59;15.40;;;10.93;;
2972;SDS011;1496;51.404;7.232;2023-04-01T18:53:43;14.07;;;9.87;;
2972;SDS011;1496;51.404;7.232;2023-04-01T18:56:29;11.17;;;9.97;;
2972;SDS011;1496;51.404;7.232;2023-04-01T19:01:51;12.70;;;9.67;;
2972;SDS011;1496;51.404;7.232;2023-04-01T19:04:42;13.40;;;10.20;;
2972;SDS011;1496;51.404;7.232;2023-04-01T19:10:12;12.17;;;9.10;;
2972;SDS011;1496;51.404;7.232;2023-04-01T19:16:13;15.73;;;9.90;;
2972;SDS011;1496;51.404;7.232;2023-04-01T19:18:50;11.50;;;9.30;;
2972;SDS011;1496;51.404;7.232;2023-04-01T19:21:29;12.17;;;8.50;;
2972;SDS011;1496;51.404;7.232;2023-04-01T19:29:37;7.20;;;6.13;;
2972;SDS011;1496;51.404;7.232;2023-04-01T19:32:30;8.80;;;6.50;;
2972;SDS011;1496;51.404;7.232;2023-04-01T19:35:17;7.87;;;6.80;;
2972;SDS011;1496;51.404;7.232;2023-04-01T19:38:00;7.03;;;6.33;;
2972;SDS011;1496;51.404;7.232;2023-04-01T19:43:25;8.77;;;6.93;;
2972;SDS011;1496;51.404;7.232;2023-04-01T19:59:38;6.53;;;5.50;;
2972;SDS011;1496;51.404;7.232;2023-04-01T20:04:42;7.27;;;4.60;;
2972;SDS011;1496;51.404;7.232;2023-04-01T20:15:28;13.83;;;7.10;;
2972;SDS011;1496;51.404;7.232;2023-04-01T20:17:53;11.30;;;5.67;;
2972;SDS011;1496;51.404;7.232;2023-04-01T20:20:26;8.53;;;6.00;;
2972;SDS011;1496;51.404;7.232;2023-04-01T20:25:52;4.87;;;4.17;;
2972;SDS011;1496;51.404;7.232;2023-04-01T20:28:37;5.40;;;3.50;;
2972;SDS011;1496;51.404;7.232;2023-04-01T20:34:20;3.50;;;3.20;;
2972;SDS011;1496;51.404;7.232;2023-04-01T20:43:10;4.40;;;4.00;;
2972;SDS011;1496;51.404;7.232;2023-04-01T20:46:17;4.27;;;3.87;;
2972;SDS011;1496;51.404;7.232;2023-04-01T20:49:23;6.13;;;4.70;;
2972;SDS011;1496;51.404;7.232;2023-04-01T20:52:15;6.50;;;5.23;;
2972;SDS011;1496;51.404;7.232;2023-04-01T20:57:59;7.60;;;6.17;;
2972;SDS011;1496;51.404;7.232;2023-04-01T21:17:08;4.50;;;3.83;;
2972;SDS011;1496;51.404;7.232;2023-04-01T21:25:38;6.10;;;3.20;;
2972;SDS011;1496;51.404;7.232;2023-04-01T21:45:10;7.63;;;6.60;;
2972;SDS011;1496;51.404;7.232;2023-04-01T21:59:35;8.80;;;5.90;;
2972;SDS011;1496;51.404;7.232;2023-04-01T22:08:32;6.67;;;4.50;;
2972;SDS011;1496;51.404;7.232;2023-04-01T22:11:15;3.83;;;3.43;;
2972;SDS011;1496;51.404;7.232;2023-04-01T22:13:49;5.40;;;3.50;;
2972;SDS011;1496;51.404;7.232;2023-04-01T22:22:38;7.13;;;6.30;;
2972;SDS011;1496;51.404;7.232;2023-04-01T22:25:25;7.80;;;7.00;;
2972;SDS011;1496;51.404;7.232;2023-04-01T22:28:07;9.47;;;6.40;;
2972;SDS011;1496;51.404;7.232;2023-04-01T22:30:50;9.13;;;5.40;;
2972;SDS011;1496;51.404;7.232;2023-04-01T22:36:13;10.27;;;7.33;;
2972;SDS011;1496;51.404;7.232;2023-04-01T22:44:20;10.00;;;8.57;;
2972;SDS011;1496;51.404;7.232;2023-04-01T22:46:56;9.30;;;7.60;;
2972;SDS011;1496;51.404;7.232;2023-04-01T22:49:36;7.60;;;6.80;;
2972;SDS011;1496;51.404;7.232;2023-04-01T22:52:15;7.23;;;6.10;;
2972;SDS011;1496;51.404;7.232;2023-04-01T22:55:03;5.40;;;4.90;;
2972;SDS011;1496;51.404;7.232;2023-04-01T22:57:51;5.77;;;5.00;;
2972;SDS011;1496;51.404;7.232;2023-04-01T23:05:58;11.03;;;7.27;;
2972;SDS011;1496;51.404;7.232;2023-04-01T23:11:58;8.40;;;7.43;;
2972;SDS011;1496;51.404;7.232;2023-04-01T23:14:22;7.80;;;6.90;;
2972;SDS011;1496;51.404;7.232;2023-04-01T23:28:54;5.27;;;4.77;;
2972;SDS011;1496;51.404;7.232;2023-04-01T23:31:33;5.43;;;4.53;;
2972;SDS011;1496;51.404;7.232;2023-04-01T23:37:21;4.80;;;4.40;;
2972;SDS011;1496;51.404;7.232;2023-04-01T23:39:45;7.87;;;4.47;;
2972;SDS011;1496;51.404;7.232;2023-04-01T23:42:18;6.27;;;4.67;;
2972;SDS011;1496;51.404;7.232;2023-04-01T23:44:53;4.47;;;4.07;;
2972;SDS011;1496;51.404;7.232;2023-04-01T23:47:38;5.20;;;4.30;;
2972;SDS011;1496;51.404;7.232;2023-04-01T23:50:17;5.73;;;5.13;;
2972;SDS011;1496;51.404;7.232;2023-04-01T23:55:33;4.80;;;4.30;;
2972;SDS011;1496;51.404;7.232;2023-04-01T23:58:22;5.30;;;4.80;;
